Time;durP1;ratioP1;P1;durP2;ratioP2;P2;SDS_P1;SDS_P2;PMS_P1;PMS_P2;Temp;Humidity;BMP_temperature;BMP_pressure;BME280_temperature;BME280_humidity;BME280_pressure;Samples;Min_cycle;Max_cycle;Signal;HPM_P1;HPM_P2
2021/12/06 00:00:43;;;;;;;3.78;1.45;;;19.20;62.40;;;;;;6176586;22;96275;-74
2021/12/06 00:03:15;;;;;;;2.67;1.60;;;19.20;62.30;;;;;;6175388;22;93598;-76
2021/12/06 00:05:41;;;;;;;2.95;1.02;;;19.20;62.30;;;;;;6177206;22;92940;-75
2021/12/06 00:08:07;;;;;;;4.38;1.50;;;19.20;62.30;;;;;;6176420;22;93618;-65
2021/12/06 00:10:33;;;;;;;4.97;1.83;;;19.20;62.80;;;;;;6176521;22;92154;-74
2021/12/06 00:12:59;;;;;;;2.35;1.70;;;19.20;62.30;;;;;;6176347;22;92956;-74
2021/12/06 00:15:26;;;;;;;4.80;1.30;;;19.20;62.20;;;;;;6175809;22;92062;-73
2021/12/06 00:17:52;;;;;;;5.18;1.77;;;19.20;62.20;;;;;;6175364;22;92875;-75
2021/12/06 00:20:18;;;;;;;4.30;2.00;;;19.10;62.20;;;;;;6175903;22;93197;-74
2021/12/06 00:22:44;;;;;;;3.97;1.65;;;19.10;62.10;;;;;;6176391;22;92792;-68
2021/12/06 00:25:10;;;;;;;3.28;1.55;;;19.10;62.20;;;;;;6175544;22;92303;-70
2021/12/06 00:27:39;;;;;;;2.58;1.40;;;19.10;62.10;;;;;;6173696;22;94135;-67
2021/12/06 00:30:09;;;;;;;4.63;1.98;;;19.10;62.10;;;;;;6174073;22;93207;-68
2021/12/06 00:32:35;;;;;;;4.10;1.90;;;19.10;62.10;;;;;;6176052;22;92338;-71
2021/12/06 00:35:01;;;;;;;4.63;1.67;;;19.10;62.10;;;;;;6175819;22;92680;-71
2021/12/06 00:37:34;;;;;;;2.78;1.60;;;19.10;62.20;;;;;;6175260;22;92775;-71
2021/12/06 00:40:04;;;;;;;6.70;2.50;;;19.10;62.10;;;;;;6175338;22;92781;-72
2021/12/06 00:42:33;;;;;;;3.80;1.67;;;19.10;62.10;;;;;;6176334;22;92715;-73
2021/12/06 00:44:59;;;;;;;2.55;1.58;;;19.00;62.00;;;;;;6176354;22;91658;-73
2021/12/06 00:47:25;;;;;;;4.40;1.65;;;19.00;62.10;;;;;;6174072;22;93219;-73
2021/12/06 00:49:51;;;;;;;3.28;1.38;;;19.00;62.00;;;;;;6174789;22;92781;-70
2021/12/06 00:52:17;;;;;;;2.55;1.58;;;19.00;62.00;;;;;;6174666;22;93922;-71
2021/12/06 00:54:44;;;;;;;4.22;1.98;;;19.00;62.00;;;;;;6175670;22;92470;-70
2021/12/06 00:57:12;;;;;;;4.03;1.50;;;19.00;62.10;;;;;;6175836;22;92113;-67
2021/12/06 00:59:38;;;;;;;5.07;1.65;;;18.90;62.00;;;;;;6176329;22;92180;-72
2021/12/06 01:02:06;;;;;;;2.90;1.55;;;19.00;62.00;;;;;;6175651;22;92608;-69
2021/12/06 01:04:33;;;;;;;2.95;1.83;;;18.90;62.00;;;;;;6174226;22;92678;-70
2021/12/06 01:06:59;;;;;;;2.65;1.63;;;18.90;62.00;;;;;;6175668;22;93559;-65
2021/12/06 01:09:25;;;;;;;3.05;1.60;;;18.90;62.00;;;;;;6176204;22;93087;-70
2021/12/06 01:11:51;;;;;;;3.13;1.75;;;18.90;62.00;;;;;;6176465;22;92083;-71
2021/12/06 01:14:19;;;;;;;2.40;1.30;;;18.90;62.00;;;;;;6175896;22;92539;-73
2021/12/06 01:16:44;;;;;;;3.55;1.45;;;18.90;62.00;;;;;;6174037;22;94476;-70
2021/12/06 01:19:10;;;;;;;3.17;1.63;;;18.90;62.00;;;;;;6174558;22;94393;-69
2021/12/06 01:21:56;;;;;;;3.13;1.50;;;18.90;62.00;;;;;;6175446;22;93906;-70
2021/12/06 01:24:28;;;;;;;4.05;1.60;;;18.90;62.00;;;;;;6175690;22;92572;-66
2021/12/06 01:32:18;;;;;;;4.13;1.40;;;18.90;62.00;;;;;;6175856;22;93074;-66
2021/12/06 01:40:13;;;;;;;3.20;1.60;;;18.80;61.90;;;;;;6173529;22;92198;-69
2021/12/06 01:42:39;;;;;;;2.83;1.60;;;18.80;61.90;;;;;;6175290;22;93104;-71
2021/12/06 01:45:06;;;;;;;2.60;1.55;;;18.80;61.90;;;;;;6175885;22;93053;-71
2021/12/06 01:47:35;;;;;;;2.90;1.80;;;18.80;61.90;;;;;;6175756;22;95163;-65
2021/12/06 01:50:10;;;;;;;2.85;1.90;;;18.80;61.90;;;;;;6175721;22;93462;-71
2021/12/06 01:52:44;;;;;;;2.72;1.40;;;18.80;61.90;;;;;;6177095;22;92889;-69
2021/12/06 01:55:11;;;;;;;;;;;18.80;61.90;;;;;;6178110;22;92225;-70
2021/12/06 01:57:37;;;;;;;3.50;1.70;;;18.80;61.90;;;;;;6179225;22;93074;-68
2021/12/06 02:00:30;;;;;;;2.05;1.60;;;18.80;62.40;;;;;;6177486;22;92823;-71
2021/12/06 02:02:56;;;;;;;2.22;1.30;;;18.70;61.70;;;;;;6163670;22;92368;-71
2021/12/06 02:05:22;;;;;;;2.20;1.70;;;18.80;61.80;;;;;;6175813;22;92542;-66
2021/12/06 02:07:47;;;;;;;1.90;1.35;;;18.70;61.70;;;;;;6173506;22;93651;-68
2021/12/06 02:10:16;;;;;;;4.35;1.80;;;18.70;61.80;;;;;;6175273;22;94115;-70
2021/12/06 02:12:44;;;;;;;2.10;1.52;;;18.70;61.70;;;;;;6176100;22;92584;-67
2021/12/06 02:18:01;;;;;;;2.00;1.40;;;18.70;61.80;;;;;;6176786;22;94189;-71
2021/12/06 02:20:29;;;;;;;2.78;1.60;;;18.70;61.80;;;;;;6175562;22;96521;-71
2021/12/06 02:22:56;;;;;;;3.17;1.48;;;18.60;61.70;;;;;;6175944;22;92464;-70
2021/12/06 02:25:22;;;;;;;2.30;1.40;;;18.70;61.80;;;;;;6176318;22;92177;-69
2021/12/06 02:27:53;;;;;;;2.35;1.50;;;18.60;61.70;;;;;;6174993;22;92961;-71
2021/12/06 02:30:20;;;;;;;4.05;1.48;;;18.60;61.70;;;;;;6174999;22;93121;-70
2021/12/06 02:32:47;;;;;;;3.75;1.58;;;18.60;61.70;;;;;;6176623;22;94348;-71
2021/12/06 02:35:17;;;;;;;3.17;1.45;;;18.60;61.70;;;;;;6176782;22;92829;-70
2021/12/06 02:37:43;;;;;;;3.50;1.52;;;18.60;61.70;;;;;;6176562;22;93164;-64
2021/12/06 02:40:15;;;;;;;3.88;1.77;;;18.60;61.80;;;;;;6176922;22;93186;-70
2021/12/06 02:42:42;;;;;;;3.42;1.90;;;18.60;61.70;;;;;;6175956;22;92623;-69
2021/12/06 02:45:09;;;;;;;2.05;1.38;;;18.60;61.60;;;;;;6176951;22;92615;-70
2021/12/06 02:47:35;;;;;;;2.30;1.48;;;18.60;61.60;;;;;;6176532;22;93015;-65
2021/12/06 02:50:07;;;;;;;3.10;1.67;;;18.60;61.60;;;;;;6177078;22;92470;-69
2021/12/06 02:52:33;;;;;;;2.78;1.55;;;18.60;61.60;;;;;;6176701;22;92677;-67
2021/12/06 02:55:00;;;;;;;1.70;1.20;;;18.60;61.60;;;;;;6176365;22;92613;-63
2021/12/06 02:57:35;;;;;;;3.67;1.60;;;18.60;61.70;;;;;;6176528;22;93762;-67
2021/12/06 03:00:03;;;;;;;4.05;1.65;;;18.60;61.60;;;;;;6175750;22;93627;-71
2021/12/06 03:02:30;;;;;;;1.92;1.25;;;18.50;61.60;;;;;;6176029;22;92410;-71
2021/12/06 03:04:57;;;;;;;2.88;1.50;;;18.50;61.50;;;;;;6175435;22;92516;-66
2021/12/06 03:07:25;;;;;;;2.75;1.58;;;18.50;61.50;;;;;;6176200;22;93209;-68
2021/12/06 03:09:53;;;;;;;2.95;1.67;;;18.50;61.40;;;;;;6176182;22;92865;-67
2021/12/06 03:12:22;;;;;;;3.78;1.63;;;18.50;61.50;;;;;;6176188;22;92916;-66
2021/12/06 03:14:55;;;;;;;2.63;1.60;;;18.50;61.40;;;;;;6175932;22;91960;-68
2021/12/06 03:17:23;;;;;;;2.97;2.00;;;18.50;61.40;;;;;;6175571;22;92705;-71
2021/12/06 03:19:49;;;;;;;2.42;1.65;;;18.50;61.40;;;;;;6176321;22;92392;-65
2021/12/06 03:22:16;;;;;;;2.83;1.60;;;18.50;61.40;;;;;;6175910;22;93936;-67
2021/12/06 03:24:43;;;;;;;1.80;1.27;;;18.40;61.30;;;;;;6176203;22;92712;-68
2021/12/06 03:27:09;;;;;;;3.60;1.85;;;18.50;61.40;;;;;;6173918;22;93398;-68
2021/12/06 03:29:35;;;;;;;2.00;1.60;;;18.50;61.40;;;;;;6175971;22;92690;-65
2021/12/06 03:32:02;;;;;;;2.28;1.60;;;18.50;61.40;;;;;;6176063;22;92504;-68
2021/12/06 03:34:29;;;;;;;2.72;1.65;;;18.50;61.40;;;;;;6176230;22;92496;-68
2021/12/06 03:36:57;;;;;;;4.05;1.60;;;18.50;61.40;;;;;;6175093;22;92407;-70
2021/12/06 03:39:27;;;;;;;3.72;1.75;;;18.40;61.30;;;;;;6176059;22;92586;-70
2021/12/06 03:41:58;;;;;;;2.95;1.60;;;18.40;61.30;;;;;;6175736;22;92732;-69
2021/12/06 03:44:24;;;;;;;2.60;1.52;;;18.40;61.30;;;;;;6175762;22;92775;-65
2021/12/06 03:46:54;;;;;;;2.10;1.52;;;18.40;61.30;;;;;;6174656;22;94285;-68
2021/12/06 03:49:20;;;;;;;2.65;1.30;;;18.40;61.30;;;;;;6176269;22;93612;-69
2021/12/06 03:51:46;;;;;;;2.75;1.40;;;18.40;61.30;;;;;;6176595;22;92687;-67
2021/12/06 03:54:16;;;;;;;2.10;1.40;;;18.40;61.30;;;;;;6176643;22;93063;-68
2021/12/06 03:56:42;;;;;;;1.98;1.30;;;18.40;61.30;;;;;;6175821;22;92302;-69
2021/12/06 03:59:08;;;;;;;2.33;1.50;;;18.40;61.30;;;;;;6174931;22;95550;-66
2021/12/06 04:01:34;;;;;;;2.33;1.45;;;18.40;61.30;;;;;;6176706;22;93489;-69
2021/12/06 04:04:02;;;;;;;2.30;1.50;;;18.40;61.30;;;;;;6176594;22;92161;-69
2021/12/06 04:06:28;;;;;;;2.63;1.52;;;18.40;61.30;;;;;;6175409;22;95210;-67
2021/12/06 04:08:53;;;;;;;3.72;2.03;;;18.40;61.30;;;;;;6175593;22;92749;-68
2021/12/06 04:11:19;;;;;;;4.22;1.50;;;18.40;61.30;;;;;;6175867;22;93293;-69
2021/12/06 04:13:45;;;;;;;2.65;1.55;;;18.40;61.30;;;;;;6174605;22;92985;-69
2021/12/06 04:16:11;;;;;;;2.70;1.63;;;18.40;61.30;;;;;;6175705;22;92988;-68
2021/12/06 04:18:37;;;;;;;2.70;1.55;;;18.40;61.30;;;;;;6176083;22;92827;-69
2021/12/06 04:21:04;;;;;;;3.72;1.80;;;18.30;61.30;;;;;;6176412;22;92740;-68
2021/12/06 04:23:32;;;;;;;3.35;1.63;;;18.30;61.30;;;;;;6176369;22;93010;-68
2021/12/06 04:25:58;;;;;;;3.20;1.73;;;18.30;61.30;;;;;;6176292;22;93384;-68
2021/12/06 04:28:24;;;;;;;2.97;1.50;;;18.30;61.20;;;;;;6175923;22;92741;-68
2021/12/06 04:30:50;;;;;;;3.10;2.08;;;18.30;61.20;;;;;;6177042;22;92094;-68
2021/12/06 04:33:16;;;;;;;2.17;1.58;;;18.30;61.20;;;;;;6165736;22;92989;-70
2021/12/06 04:35:43;;;;;;;3.00;1.33;;;18.30;61.20;;;;;;6144956;22;93435;-65
2021/12/06 04:38:10;;;;;;;3.08;1.50;;;18.30;61.10;;;;;;6144952;22;92929;-65
2021/12/06 04:40:36;;;;;;;2.63;1.92;;;18.30;61.10;;;;;;6143844;22;92191;-72
2021/12/06 04:43:02;;;;;;;2.38;1.75;;;18.30;61.10;;;;;;6144691;22;92922;-73
2021/12/06 04:45:28;;;;;;;5.60;1.70;;;18.30;61.00;;;;;;6144397;22;93336;-69
2021/12/06 04:47:54;;;;;;;2.17;1.50;;;18.30;61.00;;;;;;6145582;22;92965;-69
2021/12/06 04:50:25;;;;;;;2.40;1.45;;;18.30;61.00;;;;;;6145999;22;92870;-72
2021/12/06 04:52:52;;;;;;;2.65;1.60;;;18.30;61.00;;;;;;6146922;22;91840;-66
2021/12/06 04:55:38;;;;;;;2.38;1.67;;;18.20;60.90;;;;;;6145279;22;94948;-63
2021/12/06 04:58:06;;;;;;;2.20;2.00;;;18.20;60.90;;;;;;6143644;22;94215;-65
2021/12/06 05:00:42;;;;;;;2.95;1.83;;;18.20;60.90;;;;;;6144898;22;93238;-65
2021/12/06 05:03:08;;;;;;;2.40;1.50;;;18.20;60.90;;;;;;6146852;22;92360;-68
2021/12/06 05:05:42;;;;;;;2.17;1.73;;;18.20;60.90;;;;;;6144905;22;94865;-65
2021/12/06 05:08:16;;;;;;;2.08;1.55;;;18.20;60.80;;;;;;6143970;22;92855;-68
2021/12/06 05:10:43;;;;;;;2.00;1.80;;;18.20;60.90;;;;;;6146033;22;92222;-66
2021/12/06 05:13:09;;;;;;;2.00;1.73;;;18.20;60.90;;;;;;6145454;22;92055;-71
2021/12/06 05:15:35;;;;;;;2.95;1.88;;;18.20;60.80;;;;;;6145217;22;93532;-65
2021/12/06 05:18:00;;;;;;;2.70;1.85;;;18.20;60.90;;;;;;6145766;22;92884;-66
2021/12/06 05:20:26;;;;;;;1.75;1.50;;;18.20;60.90;;;;;;6144951;22;92842;-73
2021/12/06 05:22:52;;;;;;;3.30;1.77;;;18.20;60.90;;;;;;6145510;22;92587;-66
2021/12/06 05:25:22;;;;;;;3.60;1.60;;;18.20;60.90;;;;;;6144572;22;93974;-65
2021/12/06 05:27:48;;;;;;;3.50;2.10;;;18.20;60.90;;;;;;6144495;22;93118;-66
2021/12/06 05:30:15;;;;;;;2.78;1.83;;;18.10;60.90;;;;;;6145845;22;92832;-71
2021/12/06 05:32:42;;;;;;;2.78;1.75;;;18.10;60.80;;;;;;6146295;22;92452;-67
2021/12/06 05:35:09;;;;;;;2.88;2.03;;;18.10;60.80;;;;;;6144928;22;92572;-65
2021/12/06 05:37:40;;;;;;;4.25;2.10;;;18.10;60.80;;;;;;6145525;22;93089;-68
2021/12/06 05:40:08;;;;;;;3.15;2.03;;;18.10;60.90;;;;;;6145937;22;92132;-66
2021/12/06 05:42:34;;;;;;;2.75;1.70;;;18.20;60.90;;;;;;6146251;22;91816;-73
2021/12/06 05:44:59;;;;;;;2.08;1.83;;;18.20;60.90;;;;;;6145667;22;92750;-66
2021/12/06 05:47:25;;;;;;;3.55;2.10;;;18.10;60.90;;;;;;6145499;22;92224;-64
2021/12/06 05:49:51;;;;;;;1.98;1.63;;;18.10;60.90;;;;;;6144652;22;93798;-66
2021/12/06 05:52:16;;;;;;;2.47;2.05;;;18.10;60.90;;;;;;6144910;22;92690;-66
2021/12/06 05:54:42;;;;;;;2.75;1.85;;;18.10;60.90;;;;;;6145030;22;92920;-73
2021/12/06 05:57:09;;;;;;;2.20;1.70;;;18.10;60.90;;;;;;6144284;22;92628;-65
2021/12/06 05:59:36;;;;;;;2.53;1.85;;;18.10;61.40;;;;;;6145594;22;92608;-66
2021/12/06 06:02:02;;;;;;;3.05;1.45;;;18.10;60.90;;;;;;6145334;22;92984;-67
2021/12/06 06:04:27;;;;;;;3.67;2.15;;;18.10;61.00;;;;;;6145343;22;93102;-71
2021/12/06 06:06:54;;;;;;;3.67;2.30;;;18.10;60.90;;;;;;6144926;22;92788;-65
2021/12/06 06:09:20;;;;;;;2.58;2.35;;;18.20;60.80;;;;;;6143844;22;92400;-70
2021/12/06 06:11:45;;;;;;;1.92;1.70;;;18.30;60.80;;;;;;6144545;22;92666;-66
2021/12/06 06:14:11;;;;;;;5.55;2.30;;;18.40;60.70;;;;;;6144008;22;93608;-73
2021/12/06 06:16:47;;;;;;;2.95;2.17;;;18.50;60.60;;;;;;6144574;22;93816;-75
2021/12/06 06:19:17;;;;;;;2.60;1.92;;;18.60;60.50;;;;;;6145494;22;92708;-67
2021/12/06 06:21:44;;;;;;;2.80;1.88;;;18.70;60.40;;;;;;6144286;22;92347;-68
2021/12/06 06:24:09;;;;;;;3.45;2.40;;;18.80;60.20;;;;;;6143401;22;92703;-74
2021/12/06 06:26:35;;;;;;;2.70;2.10;;;18.90;60.10;;;;;;6143153;22;93415;-66
2021/12/06 06:29:01;;;;;;;3.45;2.17;;;19.00;60.00;;;;;;6144776;22;92399;-74
2021/12/06 06:31:27;;;;;;;2.45;2.08;;;19.10;60.10;;;;;;6145814;22;92088;-64
2021/12/06 06:33:52;;;;;;;4.45;2.45;;;19.10;59.70;;;;;;6144279;22;92530;-65
2021/12/06 06:36:18;;;;;;;2.83;2.25;;;19.20;59.70;;;;;;6145210;22;92693;-65
2021/12/06 06:38:44;;;;;;;3.03;2.35;;;19.30;59.60;;;;;;6145756;22;93468;-64
2021/12/06 06:41:10;;;;;;;214.18;30.52;;;19.40;59.40;;;;;;6146625;22;92063;-64
2021/12/06 06:43:36;;;;;;;66.35;12.75;;;19.50;59.30;;;;;;6145322;22;92748;-63
2021/12/06 06:46:06;;;;;;;41.47;9.27;;;19.50;59.20;;;;;;6145174;22;93264;-67
2021/12/06 06:48:32;;;;;;;42.60;9.35;;;19.60;59.00;;;;;;6145662;22;92792;-64
2021/12/06 06:50:58;;;;;;;46.88;9.25;;;19.60;58.90;;;;;;6145870;22;92582;-63
2021/12/06 06:53:27;;;;;;;49.22;8.18;;;19.60;58.70;;;;;;6145791;22;92709;-65
2021/12/06 06:55:54;;;;;;;36.67;8.30;;;19.70;58.60;;;;;;6147141;22;92908;-57
2021/12/06 06:58:20;;;;;;;25.25;5.85;;;19.70;58.50;;;;;;6145548;22;93601;-63
2021/12/06 07:00:46;;;;;;;31.98;6.85;;;19.70;58.60;;;;;;6145949;22;92099;-63
2021/12/06 07:03:12;;;;;;;29.73;6.13;;;19.70;58.70;;;;;;6145213;22;94006;-67
2021/12/06 07:05:38;;;;;;;16.98;3.90;;;19.70;58.80;;;;;;6146571;22;94029;-66
2021/12/06 07:08:04;;;;;;;23.48;5.25;;;19.70;59.00;;;;;;6146443;22;92633;-63
2021/12/06 07:10:30;;;;;;;21.58;4.78;;;19.80;59.00;;;;;;6144467;22;92792;-68
2021/12/06 07:13:02;;;;;;;16.25;5.20;;;19.80;59.00;;;;;;6145887;22;92603;-61
2021/12/06 07:15:32;;;;;;;13.30;4.93;;;19.80;58.90;;;;;;6145350;22;96462;-61
2021/12/06 07:17:59;;;;;;;25.42;6.10;;;19.80;58.70;;;;;;6146080;22;92345;-62
2021/12/06 07:20:25;;;;;;;22.50;6.00;;;19.90;58.60;;;;;;6146284;22;91588;-62
2021/12/06 07:22:52;;;;;;;18.83;5.65;;;19.90;58.50;;;;;;6144812;22;92845;-60
2021/12/06 07:25:21;;;;;;;15.85;5.40;;;20.00;58.50;;;;;;6145672;22;92743;-61
2021/12/06 07:27:49;;;;;;;19.10;5.93;;;20.00;58.40;;;;;;6145296;22;93757;-60
2021/12/06 07:30:20;;;;;;;19.60;5.82;;;20.10;58.40;;;;;;6145097;22;92996;-56
2021/12/06 07:32:47;;;;;;;19.15;5.55;;;20.20;58.40;;;;;;6135667;22;93479;-60
2021/12/06 07:35:15;;;;;;;13.75;5.07;;;20.20;58.30;;;;;;6140443;22;96324;-62
2021/12/06 07:37:42;;;;;;;16.83;4.82;;;20.20;58.20;;;;;;6144564;22;92191;-63
2021/12/06 07:40:09;;;;;;;13.65;5.13;;;20.30;58.20;;;;;;6145531;22;92780;-62
2021/12/06 07:42:40;;;;;;;21.58;6.50;;;20.30;58.10;;;;;;6144522;22;93069;-63
2021/12/06 07:45:09;;;;;;;20.48;4.75;;;20.40;58.30;;;;;;6143512;22;94787;-63
2021/12/06 07:47:37;;;;;;;16.73;5.38;;;20.40;58.10;;;;;;6144338;22;92777;-63
2021/12/06 07:50:09;;;;;;;14.98;5.25;;;20.40;58.00;;;;;;6144667;22;92799;-62
2021/12/06 07:52:35;;;;;;;12.20;4.45;;;20.50;57.90;;;;;;6142883;22;95230;-63
2021/12/06 07:55:02;;;;;;;14.98;5.60;;;20.40;57.70;;;;;;6142879;22;94731;-62
2021/12/06 07:57:28;;;;;;;12.50;5.40;;;20.50;57.70;;;;;;6046541;22;96751;-62
2021/12/06 07:59:56;;;;;;;19.27;6.07;;;20.50;57.60;;;;;;6114665;23;92230;-63
2021/12/06 08:02:22;;;;;;;13.68;4.40;;;20.50;57.50;;;;;;6114135;23;93743;-62
2021/12/06 08:04:54;;;;;;;10.52;4.68;;;20.50;57.50;;;;;;6115021;23;92885;-62
2021/12/06 08:07:20;;;;;;;12.82;4.40;;;20.50;57.20;;;;;;6115414;23;92670;-64
2021/12/06 08:09:49;;;;;;;11.45;4.50;;;20.60;57.00;;;;;;6114913;23;91781;-62
2021/12/06 08:12:15;;;;;;;8.95;4.40;;;20.50;56.90;;;;;;6084934;23;94681;-62
2021/12/06 08:14:40;;;;;;;14.05;5.00;;;20.50;56.90;;;;;;6089117;23;95638;-62
2021/12/06 08:17:06;;;;;;;11.52;4.10;;;20.50;56.90;;;;;;6114871;23;93330;-62
2021/12/06 08:19:32;;;;;;;10.88;4.70;;;20.50;56.90;;;;;;6115185;23;92486;-62
2021/12/06 08:21:57;;;;;;;14.30;4.55;;;20.50;56.80;;;;;;6114498;23;93049;-63
2021/12/06 08:24:23;;;;;;;10.57;5.18;;;20.40;56.80;;;;;;6114323;23;92944;-62
2021/12/06 08:26:49;;;;;;;12.05;4.65;;;20.40;56.80;;;;;;6115793;23;93150;-62
2021/12/06 08:29:16;;;;;;;12.35;4.32;;;20.40;56.80;;;;;;6115481;23;92633;-62
2021/12/06 08:31:44;;;;;;;14.75;4.65;;;20.40;56.70;;;;;;6089725;23;95703;-62
2021/12/06 08:34:11;;;;;;;11.57;4.47;;;20.40;56.70;;;;;;6115401;23;92958;-62
2021/12/06 08:36:37;;;;;;;9.88;3.75;;;20.40;57.00;;;;;;6116833;23;92383;-63
2021/12/06 08:39:04;;;;;;;13.02;4.15;;;20.40;56.50;;;;;;6116328;23;92848;-62
2021/12/06 08:41:30;;;;;;;9.27;4.30;;;20.40;56.30;;;;;;6089550;23;95226;-62
2021/12/06 08:43:57;;;;;;;12.30;4.88;;;20.30;56.30;;;;;;6115472;23;93218;-63
2021/12/06 08:46:26;;;;;;;7.80;3.25;;;20.30;56.30;;;;;;6115163;23;92994;-62
2021/12/06 08:48:54;;;;;;;8.10;3.67;;;20.30;56.30;;;;;;6115053;23;92521;-62
2021/12/06 08:51:28;;;;;;;11.82;3.95;;;20.30;56.30;;;;;;6114046;23;93050;-63
2021/12/06 08:53:55;;;;;;;7.50;3.63;;;20.30;56.30;;;;;;6110366;23;92992;-63
2021/12/06 08:56:21;;;;;;;13.10;3.85;;;20.20;56.20;;;;;;6112951;23;92496;-62
2021/12/06 08:58:48;;;;;;;7.88;3.78;;;20.20;56.20;;;;;;6114517;23;91859;-62
2021/12/06 09:01:14;;;;;;;9.35;3.38;;;20.20;56.10;;;;;;6113815;23;92970;-63
2021/12/06 09:03:40;;;;;;;6.97;3.05;;;20.20;56.00;;;;;;6114395;23;92260;-63
2021/12/06 09:06:08;;;;;;;8.35;3.13;;;20.20;56.00;;;;;;6114600;23;93910;-62
2021/12/06 09:08:35;;;;;;;7.13;3.38;;;20.20;56.00;;;;;;6114580;23;92877;-62
2021/12/06 09:11:01;;;;;;;7.65;3.50;;;20.20;55.80;;;;;;6112869;23;93292;-63
2021/12/06 09:13:29;;;;;;;9.10;3.65;;;20.20;55.60;;;;;;6114179;23;92660;-63
2021/12/06 09:16:02;;;;;;;8.13;4.00;;;20.20;55.50;;;;;;6111735;23;92710;-63
2021/12/06 09:18:30;;;;;;;7.03;3.50;;;20.20;55.40;;;;;;6113159;23;92683;-63
2021/12/06 09:20:56;;;;;;;7.72;3.60;;;20.20;55.30;;;;;;6112641;23;93124;-62
2021/12/06 09:23:22;;;;;;;8.23;4.43;;;20.30;55.20;;;;;;6113925;23;92289;-63
2021/12/06 09:25:48;;;;;;;7.72;4.43;;;20.30;54.90;;;;;;6113629;23;92081;-63
2021/12/06 09:28:15;;;;;;;8.30;4.25;;;20.30;54.80;;;;;;6114345;23;93091;-63
2021/12/06 09:30:42;;;;;;;9.15;4.97;;;20.30;54.20;;;;;;6086050;23;98468;-63
2021/12/06 09:33:10;;;;;;;9.70;4.57;;;20.30;54.40;;;;;;6112966;23;94588;-62
2021/12/06 09:35:41;;;;;;;7.25;4.28;;;20.20;54.20;;;;;;6116336;23;92479;-63
2021/12/06 09:38:08;;;;;;;7.93;4.65;;;20.20;54.10;;;;;;6116495;23;92811;-63
2021/12/06 09:40:36;;;;;;;7.70;4.45;;;20.20;54.10;;;;;;6115624;23;93664;-63
2021/12/06 09:43:05;;;;;;;7.47;4.72;;;20.20;54.10;;;;;;6114826;23;94811;-63
2021/12/06 09:45:32;;;;;;;5.78;3.90;;;20.20;54.10;;;;;;6115318;23;92616;-62
2021/12/06 09:48:00;;;;;;;9.23;4.10;;;20.20;54.00;;;;;;6115600;23;91454;-63
2021/12/06 09:50:30;;;;;;;6.30;4.05;;;20.30;54.10;;;;;;6114098;23;92573;-63
2021/12/06 09:53:00;;;;;;;10.77;4.03;;;20.20;54.00;;;;;;6115393;23;93163;-63
2021/12/06 09:55:29;;;;;;;8.90;4.70;;;20.30;54.00;;;;;;6115333;23;93277;-62
2021/12/06 09:57:55;;;;;;;6.40;3.65;;;20.20;53.90;;;;;;6114678;23;92100;-63
2021/12/06 10:00:24;;;;;;;7.40;4.40;;;20.30;54.00;;;;;;6087959;23;96299;-63
2021/12/06 10:02:51;;;;;;;7.05;4.03;;;20.20;54.00;;;;;;6088837;23;93948;-63
2021/12/06 10:05:17;;;;;;;7.88;4.30;;;20.20;54.00;;;;;;6116449;23;93100;-66
2021/12/06 10:07:42;;;;;;;7.43;4.10;;;20.20;54.00;;;;;;6117364;23;92441;-62
2021/12/06 10:10:10;;;;;;;7.18;4.05;;;20.30;54.10;;;;;;6115810;23;92665;-63
2021/12/06 10:12:37;;;;;;;6.65;3.80;;;20.30;54.10;;;;;;6116084;23;92863;-64
2021/12/06 10:15:04;;;;;;;9.38;4.22;;;20.30;54.00;;;;;;6115425;23;92081;-62
2021/12/06 10:17:32;;;;;;;8.32;3.58;;;20.30;54.00;;;;;;6115255;23;92605;-63
2021/12/06 10:19:58;;;;;;;10.07;4.20;;;20.30;54.00;;;;;;6114814;23;94032;-63
2021/12/06 10:22:26;;;;;;;9.73;4.22;;;20.40;54.00;;;;;;6114543;23;93217;-63
2021/12/06 10:24:56;;;;;;;7.70;3.65;;;20.40;54.00;;;;;;6091066;23;92645;-63
2021/12/06 10:27:21;;;;;;;8.25;4.00;;;20.40;54.00;;;;;;6116454;23;92610;-62
2021/12/06 10:29:53;;;;;;;8.18;4.13;;;20.40;54.00;;;;;;6115644;23;93031;-63
2021/12/06 10:32:25;;;;;;;16.20;3.58;;;20.40;54.00;;;;;;6115424;23;92736;-62
2021/12/06 10:35:03;;;;;;;8.70;3.63;;;20.40;54.00;;;;;;6116400;23;92915;-61
2021/12/06 10:37:55;;;;;;;7.63;4.18;;;20.40;54.00;;;;;;6116960;23;91697;-63
2021/12/06 10:40:31;;;;;;;6.50;4.22;;;20.40;53.90;;;;;;6113102;23;93422;-62
2021/12/06 10:43:00;;;;;;;7.97;4.20;;;20.40;53.80;;;;;;6115189;23;93360;-62
2021/12/06 10:45:42;;;;;;;11.27;4.93;;;20.40;53.80;;;;;;6114379;23;93809;-62
2021/12/06 10:48:15;;;;;;;8.60;4.53;;;20.40;53.70;;;;;;6114912;23;92821;-62
2021/12/06 10:50:52;;;;;;;6.78;3.95;;;20.40;53.70;;;;;;6088762;23;96353;-63
2021/12/06 10:53:25;;;;;;;13.45;4.63;;;20.40;53.80;;;;;;6110910;23;92776;-62
2021/12/06 10:55:54;;;;;;;9.97;4.47;;;20.40;54.30;;;;;;6114728;23;92495;-62
2021/12/06 10:58:24;;;;;;;7.72;4.18;;;20.30;54.40;;;;;;6113970;23;92413;-62
2021/12/06 11:00:52;;;;;;;8.00;4.25;;;20.30;54.60;;;;;;6113475;23;92885;-62
2021/12/06 11:03:27;;;;;;;9.50;4.45;;;20.30;54.60;;;;;;6115402;23;93843;-61
2021/12/06 11:06:17;;;;;;;7.65;4.43;;;20.30;54.60;;;;;;6115726;23;92930;-62
2021/12/06 11:08:43;;;;;;;7.95;4.45;;;20.30;54.60;;;;;;6102276;23;92558;-62
2021/12/06 11:11:12;;;;;;;11.35;3.85;;;20.30;54.60;;;;;;6115257;23;93618;-62
2021/12/06 11:13:44;;;;;;;7.70;4.03;;;20.30;54.60;;;;;;6090153;23;97112;-57
2021/12/06 11:16:13;;;;;;;7.97;5.03;;;20.20;54.40;;;;;;6116286;23;92700;-57
2021/12/06 11:18:50;;;;;;;10.95;5.10;;;20.30;54.00;;;;;;6115935;23;92043;-57
2021/12/06 11:21:41;;;;;;;11.10;5.82;;;20.30;53.10;;;;;;6115282;23;93162;-59
2021/12/06 11:24:13;;;;;;;10.27;5.13;;;20.30;52.40;;;;;;6115978;23;92673;-56
2021/12/06 11:27:20;;;;;;;7.72;5.55;;;20.40;51.90;;;;;;6111805;23;92626;-57
2021/12/06 11:30:04;;;;;;;10.15;5.47;;;20.30;51.20;;;;;;6115212;23;91918;-57
2021/12/06 11:32:35;;;;;;;9.23;5.78;;;20.30;50.50;;;;;;6114814;23;92668;-57
2021/12/06 11:35:22;;;;;;;9.10;5.68;;;20.40;49.80;;;;;;6115212;23;92958;-57
2021/12/06 11:38:00;;;;;;;7.70;5.43;;;20.40;48.70;;;;;;6115274;23;94652;-57
2021/12/06 11:40:34;;;;;;;9.70;5.55;;;20.40;48.20;;;;;;6115519;23;92959;-57
2021/12/06 11:43:08;;;;;;;8.55;5.13;;;20.40;48.10;;;;;;6115247;23;92838;-57
2021/12/06 11:45:45;;;;;;;7.90;4.63;;;20.40;48.10;;;;;;6089104;23;95692;-56
2021/12/06 11:48:17;;;;;;;6.68;4.75;;;20.40;47.90;;;;;;6116712;23;92765;-56
2021/12/06 11:50:57;;;;;;;7.22;4.45;;;20.40;47.80;;;;;;6115438;23;92811;-57
2021/12/06 11:53:28;;;;;;;5.97;4.40;;;20.40;47.70;;;;;;6116197;23;93044;-60
2021/12/06 11:56:22;;;;;;;9.68;4.15;;;20.50;47.40;;;;;;6115560;23;92370;-57
2021/12/06 11:58:55;;;;;;;;;;;20.50;47.30;;;;;;6103527;23;92387;-58
2021/12/06 12:01:32;;;;;;;4.57;3.55;;;20.50;46.90;;;;;;6117268;23;92173;-57
2021/12/06 12:04:08;;;;;;;5.05;3.92;;;20.50;46.60;;;;;;6114198;23;93741;-57
2021/12/06 12:06:36;;;;;;;6.78;3.70;;;20.50;46.30;;;;;;6114257;23;93883;-57
2021/12/06 12:09:17;;;;;;;6.00;3.65;;;20.50;46.10;;;;;;6116056;23;92948;-58
2021/12/06 12:12:00;;;;;;;6.00;3.45;;;20.50;45.70;;;;;;6115744;23;92070;-57
2021/12/06 12:14:42;;;;;;;3.90;3.03;;;20.50;45.70;;;;;;6115623;23;92460;-57
2021/12/06 12:17:14;;;;;;;5.18;3.15;;;20.50;45.50;;;;;;6115421;23;92840;-58
2021/12/06 12:19:42;;;;;;;4.55;2.85;;;20.50;45.40;;;;;;6116702;23;92692;-57
2021/12/06 12:22:09;;;;;;;5.00;2.70;;;20.50;45.10;;;;;;6117200;23;91488;-58
2021/12/06 12:24:37;;;;;;;4.18;2.55;;;20.50;45.20;;;;;;6114924;23;93071;-57
2021/12/06 12:27:20;;;;;;;3.45;2.50;;;20.40;45.30;;;;;;6115388;23;92751;-57
2021/12/06 12:29:47;;;;;;;3.35;2.28;;;20.40;45.50;;;;;;6114836;23;93873;-60
2021/12/06 12:32:15;;;;;;;3.35;2.20;;;20.40;45.70;;;;;;6114262;23;92494;-57
2021/12/06 12:34:45;;;;;;;2.00;1.73;;;20.40;45.90;;;;;;6116507;23;94191;-57
2021/12/06 12:37:13;;;;;;;2.38;1.80;;;20.30;46.10;;;;;;6117019;23;92497;-56
2021/12/06 12:39:39;;;;;;;3.90;2.10;;;20.30;46.20;;;;;;6115927;23;92867;-57
2021/12/06 12:42:08;;;;;;;3.53;1.70;;;20.30;46.30;;;;;;6116632;23;92758;-57
2021/12/06 12:44:49;;;;;;;1.77;1.55;;;20.30;46.40;;;;;;6116196;23;93113;-57
2021/12/06 12:47:27;;;;;;;2.78;1.40;;;20.30;46.40;;;;;;6090141;23;97274;-57
2021/12/06 12:49:59;;;;;;;5.78;2.53;;;20.30;46.70;;;;;;6116045;23;92469;-57
2021/12/06 12:52:39;;;;;;;3.65;1.80;;;20.30;47.20;;;;;;6115852;23;92424;-64
2021/12/06 12:55:32;;;;;;;4.45;2.47;;;20.20;47.30;;;;;;6115592;23;94111;-57
2021/12/06 12:58:26;;;;;;;2.03;1.73;;;20.20;47.40;;;;;;6116367;23;93123;-57
2021/12/06 13:01:01;;;;;;;2.60;1.52;;;20.20;47.70;;;;;;6111605;23;92937;-57
2021/12/06 13:03:33;;;;;;;4.18;1.48;;;20.20;47.80;;;;;;6115753;23;92547;-57
2021/12/06 13:06:10;;;;;;;5.25;2.08;;;20.20;47.90;;;;;;6114602;23;93669;-57
2021/12/06 13:08:36;;;;;;;3.47;1.63;;;20.20;48.10;;;;;;6116123;23;93115;-58